Terminal Aerodrome Forecast
Issued by NWS Wakefield, VA

Home | Current Version | Previous Version | Text Only | Print | Product List | Glossary On
Versions: 1 2 3 4 5 6 7 8 9 10 11 12 13 14 15 16 17 18 19 20 21 22 23
000
FTUS41 KAKQ 020800 AAA
TAFRIC
TAF AMD
KRIC 020826Z 0208/0306 VRB03KT P6SM SCT040 BKN080
      TEMPO 0208/0209 5SM -RA BR SCT015 BKN030
     FM021000 00000KT 2SM BR SCT003 SCT015 BKN040
     FM021300 VRB05KT P6SM SCT030 BKN050=

USA.gov is the U.S. government's official web portal to all federal, state and local government web resources and services.